createdAt,value
2023-03-16T00:00:31.885Z,83.25
2023-03-16T00:01:23.531Z,83.42
2023-03-16T00:02:15.180Z,83.30
2023-03-16T00:03:06.723Z,83.30
2023-03-16T00:03:58.261Z,83.38
2023-03-16T00:04:50.091Z,83.46
2023-03-16T00:05:41.572Z,83.48
2023-03-16T00:06:33.130Z,83.28
2023-03-16T00:07:24.716Z,83.50
2023-03-16T00:08:18.106Z,83.56
2023-03-16T00:09:09.923Z,83.54
2023-03-16T00:10:02.077Z,83.65
2023-03-16T00:10:54.142Z,83.67
2023-03-16T00:11:45.729Z,83.67
2023-03-16T00:12:37.253Z,84.05
2023-03-16T00:13:29.551Z,83.78
2023-03-16T00:14:22.855Z,83.72
2023-03-16T00:15:14.358Z,83.89
2023-03-16T00:16:07.505Z,83.70
2023-03-16T00:16:59.057Z,83.61
2023-03-16T00:17:50.614Z,83.61
2023-03-16T00:18:42.414Z,83.77
2023-03-16T00:19:38.565Z,83.68
2023-03-16T00:20:30.147Z,83.48
2023-03-16T00:21:21.713Z,83.42
2023-03-16T00:22:15.578Z,83.66
2023-03-16T00:23:07.135Z,83.35
2023-03-16T00:23:58.832Z,83.66
2023-03-16T00:24:50.449Z,83.56
2023-03-16T00:25:41.958Z,83.66
2023-03-16T00:26:33.733Z,83.49
2023-03-16T00:27:26.411Z,83.33
2023-03-16T00:28:17.912Z,83.51
2023-03-16T00:29:09.856Z,83.25
2023-03-16T00:30:03.312Z,83.35
2023-03-16T00:30:59.199Z,83.55
2023-03-16T00:31:52.253Z,83.58
2023-03-16T00:32:43.877Z,83.54
2023-03-16T00:33:35.450Z,83.28
2023-03-16T00:34:30.049Z,83.01
2023-03-16T00:35:21.679Z,83.11
2023-03-16T00:36:13.289Z,83.02
2023-03-16T00:37:04.966Z,83.03
2023-03-16T00:37:57.302Z,83.13
2023-03-16T00:38:50.061Z,83.04
2023-03-16T00:39:43.334Z,82.93
2023-03-16T00:40:37.448Z,82.99
2023-03-16T00:41:29.046Z,82.85
2023-03-16T00:42:23.541Z,82.66
2023-03-16T00:43:18.641Z,82.60
2023-03-16T00:44:10.158Z,82.41
2023-03-16T00:45:02.350Z,82.32
2023-03-16T00:46:06.810Z,81.88
2023-03-16T00:46:58.511Z,81.83
2023-03-16T00:47:50.136Z,81.73
2023-03-16T00:48:45.252Z,81.73
2023-03-16T00:49:36.768Z,81.84
2023-03-16T00:50:29.105Z,81.58
2023-03-16T00:51:22.817Z,81.34
2023-03-16T00:52:16.045Z,81.41
2023-03-16T00:53:07.605Z,81.00
2023-03-16T00:53:59.275Z,80.89
2023-03-16T00:54:52.971Z,80.68
2023-03-16T00:55:44.441Z,80.59
2023-03-16T00:56:35.997Z,80.44
2023-03-16T00:57:30.042Z,80.50
2023-03-16T00:58:23.264Z,80.26
2023-03-16T00:59:16.482Z,80.19
2023-03-16T01:00:17.038Z,79.98
2023-03-16T01:01:17.041Z,79.59
2023-03-16T01:02:09.698Z,79.66
2023-03-16T01:03:01.217Z,79.59
2023-03-16T01:03:54.297Z,79.66
2023-03-16T01:04:45.933Z,79.45
2023-03-16T01:05:41.813Z,79.22
2023-03-16T01:06:33.389Z,78.94
2023-03-16T01:07:24.933Z,78.99
2023-03-16T01:08:16.471Z,78.90
2023-03-16T01:09:09.527Z,78.98
2023-03-16T01:10:01.440Z,78.70
2023-03-16T01:10:55.164Z,78.83
2023-03-16T01:11:51.387Z,78.68
2023-03-16T01:12:45.265Z,78.66
2023-03-16T01:13:38.468Z,78.65
2023-03-16T01:14:29.975Z,78.89
2023-03-16T01:15:22.383Z,79.05
2023-03-16T01:16:14.740Z,78.76
2023-03-16T01:17:08.741Z,78.76
2023-03-16T01:18:00.770Z,78.75
2023-03-16T01:18:52.977Z,78.69
2023-03-16T01:19:45.822Z,78.55
2023-03-16T01:20:37.421Z,78.08
2023-03-16T01:21:33.615Z,77.89
2023-03-16T01:22:25.101Z,77.73
2023-03-16T01:23:17.920Z,77.82
2023-03-16T01:24:09.998Z,77.91
2023-03-16T01:25:01.622Z,78.07
2023-03-16T01:25:54.052Z,77.73
2023-03-16T01:26:45.533Z,77.65
2023-03-16T01:27:37.861Z,77.14
2023-03-16T01:28:31.725Z,77.05
2023-03-16T01:29:25.087Z,77.09
2023-03-16T01:30:17.969Z,77.13
2023-03-16T01:31:14.322Z,76.72
2023-03-16T01:32:07.324Z,76.65
2023-03-16T01:32:59.061Z,76.72
2023-03-16T01:33:52.138Z,76.31
2023-03-16T01:34:46.508Z,75.92
2023-03-16T01:35:38.407Z,75.91
2023-03-16T01:36:31.944Z,75.95
2023-03-16T01:37:28.460Z,76.10
2023-03-16T01:38:24.266Z,76.19
2023-03-16T01:39:16.728Z,76.26
2023-03-16T01:40:12.513Z,75.96
2023-03-16T01:41:05.296Z,75.80
2023-03-16T01:41:56.937Z,75.77
2023-03-16T01:42:58.864Z,76.07
2023-03-16T01:43:51.891Z,75.78
2023-03-16T01:44:56.550Z,75.66
2023-03-16T01:46:18.249Z,75.49
2023-03-16T01:47:14.517Z,75.43
2023-03-16T01:48:06.242Z,75.34
2023-03-16T01:49:13.388Z,75.23
2023-03-16T01:50:07.461Z,75.30
2023-03-16T01:51:06.181Z,75.38
2023-03-16T01:52:10.263Z,75.16
2023-03-16T01:53:01.924Z,74.82
2023-03-16T01:54:09.830Z,75.06
2023-03-16T01:55:08.888Z,75.10
2023-03-16T01:56:05.878Z,75.02
2023-03-16T01:57:09.047Z,75.19
2023-03-16T01:58:01.785Z,75.17
2023-03-16T01:58:58.786Z,74.70
2023-03-16T01:59:53.233Z,74.68
2023-03-16T02:00:45.635Z,74.73
2023-03-16T02:01:46.775Z,74.60
2023-03-16T02:02:43.566Z,74.07
2023-03-16T02:03:42.632Z,74.23
2023-03-16T02:04:53.156Z,74.39
2023-03-16T02:05:59.771Z,74.43
2023-03-16T02:06:56.399Z,74.61
2023-03-16T02:07:50.606Z,74.09
2023-03-16T02:08:46.947Z,73.90
2023-03-16T02:09:44.040Z,74.26
2023-03-16T02:10:38.638Z,74.36
2023-03-16T02:11:30.513Z,74.23
2023-03-16T02:12:40.217Z,74.21
2023-03-16T02:13:36.592Z,74.23
2023-03-16T02:14:28.693Z,74.27
2023-03-16T02:15:20.633Z,74.27
2023-03-16T02:16:19.266Z,74.26
2023-03-16T02:17:11.967Z,74.17
2023-03-16T02:18:07.636Z,73.80
2023-03-16T02:18:59.793Z,73.86
2023-03-16T02:20:18.304Z,74.03
2023-03-16T02:21:17.854Z,74.21
2023-03-16T02:22:10.426Z,73.91
2023-03-16T02:23:05.789Z,73.77
2023-03-16T02:23:57.641Z,73.95
2023-03-16T02:24:49.221Z,73.65
2023-03-16T02:26:00.456Z,73.48
2023-03-16T02:27:20.113Z,73.64
2023-03-16T02:28:53.738Z,74.06
2023-03-16T02:29:52.770Z,73.63
2023-03-16T02:30:44.550Z,73.66
2023-03-16T02:31:36.451Z,73.82
2023-03-16T02:32:31.767Z,74.28
2023-03-16T02:33:26.116Z,74.06
2023-03-16T02:34:19.070Z,73.74
2023-03-16T02:35:12.884Z,74.05
2023-03-16T02:36:04.974Z,74.16
2023-03-16T02:36:59.190Z,73.95
2023-03-16T02:37:52.599Z,73.29
2023-03-16T02:38:46.332Z,73.30
2023-03-16T02:39:43.971Z,73.39
2023-03-16T02:40:38.752Z,73.83
2023-03-16T02:41:34.919Z,73.54
2023-03-16T02:42:28.880Z,73.50
2023-03-16T02:43:33.174Z,73.51
2023-03-16T02:44:37.367Z,73.35
2023-03-16T02:45:38.808Z,73.51
2023-03-16T02:46:35.574Z,73.34
2023-03-16T02:47:40.159Z,73.61
2023-03-16T02:48:37.340Z,73.95
2023-03-16T02:49:37.761Z,73.51
2023-03-16T02:50:29.948Z,73.34
2023-03-16T02:51:21.576Z,72.79
2023-03-16T02:52:13.393Z,73.14
2023-03-16T02:53:04.994Z,73.08
2023-03-16T02:53:56.566Z,73.21
2023-03-16T02:54:49.559Z,73.29
2023-03-16T02:55:41.317Z,73.66
2023-03-16T02:56:33.015Z,73.35
2023-03-16T02:57:24.659Z,73.55
2023-03-16T02:58:18.344Z,73.54
2023-03-16T02:59:12.162Z,73.76
2023-03-16T03:00:11.566Z,73.33
2023-03-16T03:01:04.204Z,73.12
2023-03-16T03:01:58.079Z,73.21
2023-03-16T03:02:49.646Z,73.11
2023-03-16T03:03:41.180Z,72.69
2023-03-16T03:04:33.091Z,72.83
2023-03-16T03:05:24.947Z,73.00
2023-03-16T03:06:17.009Z,72.56
2023-03-16T03:07:08.643Z,72.91
2023-03-16T03:08:17.172Z,72.90
2023-03-16T03:09:11.661Z,73.06
2023-03-16T03:10:05.980Z,72.73
2023-03-16T03:10:57.569Z,72.26
2023-03-16T03:11:49.057Z,72.71
2023-03-16T03:12:40.637Z,72.76
2023-03-16T03:13:35.112Z,72.78
2023-03-16T03:14:28.504Z,73.08
2023-03-16T03:15:20.142Z,73.03
2023-03-16T03:16:21.805Z,72.89
2023-03-16T03:17:14.517Z,72.47
2023-03-16T03:18:06.524Z,72.28
2023-03-16T03:18:59.400Z,72.17
2023-03-16T03:19:54.651Z,72.36
2023-03-16T03:20:46.182Z,72.42
2023-03-16T03:21:38.381Z,72.10
2023-03-16T03:22:31.510Z,72.18
2023-03-16T03:23:23.587Z,72.36
2023-03-16T03:24:15.145Z,72.53
2023-03-16T03:25:08.765Z,72.82
2023-03-16T03:26:01.390Z,72.95
2023-03-16T03:26:53.719Z,72.86
2023-03-16T03:27:47.396Z,72.91
2023-03-16T03:28:41.765Z,72.85
2023-03-16T03:29:36.143Z,72.90
2023-03-16T03:30:28.381Z,72.22
2023-03-16T03:31:22.366Z,72.12
2023-03-16T03:32:15.714Z,71.96
2023-03-16T03:33:07.272Z,72.14
2023-03-16T03:33:59.941Z,72.11
2023-03-16T03:34:52.834Z,72.18
2023-03-16T03:35:44.591Z,70.98
2023-03-16T03:36:36.357Z,71.73
2023-03-16T03:37:30.200Z,71.52
2023-03-16T03:38:21.953Z,71.51
2023-03-16T03:39:14.048Z,70.78
2023-03-16T03:40:06.711Z,70.99
2023-03-16T03:40:59.523Z,71.16
2023-03-16T03:41:54.587Z,71.28
2023-03-16T03:42:47.556Z,70.96
2023-03-16T03:43:39.154Z,70.83
2023-03-16T03:44:36.154Z,70.77
2023-03-16T03:45:27.937Z,70.71
2023-03-16T03:46:19.743Z,70.81
2023-03-16T03:47:11.434Z,70.87
2023-03-16T03:48:03.115Z,71.16
2023-03-16T03:48:54.663Z,71.22
2023-03-16T03:49:46.309Z,71.34
2023-03-16T03:50:40.793Z,71.38
2023-03-16T03:51:49.450Z,71.75
2023-03-16T03:52:46.318Z,71.41
2023-03-16T03:53:38.122Z,71.55
2023-03-16T03:54:43.427Z,71.38
2023-03-16T03:55:38.471Z,71.00
2023-03-16T03:56:29.993Z,70.74
2023-03-16T03:57:22.021Z,70.88
2023-03-16T03:58:14.176Z,71.19
2023-03-16T03:59:05.950Z,70.52
2023-03-16T04:00:20.791Z,70.95
2023-03-16T04:01:12.499Z,70.72
2023-03-16T04:02:04.278Z,71.10
2023-03-16T04:03:06.257Z,71.12
2023-03-16T04:04:05.927Z,71.65
2023-03-16T04:04:57.600Z,71.72
2023-03-16T04:05:49.261Z,71.61
2023-03-16T04:06:41.645Z,71.51
2023-03-16T04:07:33.333Z,71.60
2023-03-16T04:08:29.037Z,71.90
2023-03-16T04:09:20.619Z,71.76
2023-03-16T04:10:14.422Z,71.49
2023-03-16T04:11:08.145Z,71.64
2023-03-16T04:12:01.745Z,72.00
2023-03-16T04:12:53.767Z,72.02
2023-03-16T04:13:45.259Z,71.86
2023-03-16T04:14:36.866Z,72.05
2023-03-16T04:15:32.921Z,71.62
2023-03-16T04:16:35.782Z,71.58
2023-03-16T04:17:27.499Z,71.83
2023-03-16T04:18:22.584Z,71.85
2023-03-16T04:19:14.199Z,71.63
2023-03-16T04:20:12.878Z,71.80
2023-03-16T04:21:17.748Z,71.79
2023-03-16T04:22:12.945Z,71.84
2023-03-16T04:23:05.235Z,71.91
2023-03-16T04:23:58.368Z,72.31
2023-03-16T04:24:57.156Z,72.07
2023-03-16T04:25:51.782Z,72.27
2023-03-16T04:26:46.474Z,71.67
2023-03-16T04:27:39.052Z,72.09
2023-03-16T04:28:32.734Z,71.98
2023-03-16T04:29:25.300Z,72.15
2023-03-16T04:30:17.337Z,72.29
2023-03-16T04:31:14.075Z,72.10
2023-03-16T04:32:08.773Z,71.85
2023-03-16T04:33:01.013Z,71.49
2023-03-16T04:33:54.597Z,71.56
2023-03-16T04:34:48.194Z,71.97
2023-03-16T04:35:41.629Z,72.41
2023-03-16T04:36:33.484Z,72.21
2023-03-16T04:37:26.300Z,72.33
2023-03-16T04:38:18.210Z,72.03
2023-03-16T04:39:21.644Z,71.79
2023-03-16T04:40:16.659Z,71.99
2023-03-16T04:41:14.330Z,71.85
2023-03-16T04:42:14.860Z,71.77
2023-03-16T04:43:06.702Z,72.16
2023-03-16T04:43:59.908Z,72.40
2023-03-16T04:44:52.457Z,72.25
2023-03-16T04:45:44.966Z,72.34
2023-03-16T04:46:37.202Z,72.46
2023-03-16T04:47:33.863Z,72.16
2023-03-16T04:48:25.729Z,71.97
2023-03-16T04:49:17.519Z,72.29
2023-03-16T04:50:12.077Z,72.47
2023-03-16T04:51:04.453Z,72.21
2023-03-16T04:51:58.038Z,72.07
2023-03-16T04:52:49.868Z,72.06
2023-03-16T04:53:41.826Z,72.06
2023-03-16T04:54:47.040Z,71.97
2023-03-16T04:55:41.815Z,71.94
2023-03-16T04:56:33.754Z,71.57
2023-03-16T04:57:30.410Z,71.56
2023-03-16T04:58:22.695Z,71.61
2023-03-16T04:59:15.059Z,71.83
2023-03-16T05:00:21.391Z,71.71
2023-03-16T05:01:21.168Z,71.72
2023-03-16T05:02:17.560Z,71.88
2023-03-16T05:03:12.781Z,71.70
2023-03-16T05:04:04.360Z,71.85
2023-03-16T05:04:58.442Z,71.83
2023-03-16T05:05:51.028Z,71.78
2023-03-16T05:06:42.925Z,71.54
2023-03-16T05:07:36.822Z,71.34
2023-03-16T05:08:28.388Z,71.62
2023-03-16T05:09:20.671Z,71.02
2023-03-16T05:10:15.470Z,71.22
2023-03-16T05:11:07.675Z,71.29
2023-03-16T05:12:03.640Z,71.24
2023-03-16T05:12:55.767Z,71.43
2023-03-16T05:13:47.717Z,71.73
2023-03-16T05:14:39.824Z,71.89
2023-03-16T05:15:54.029Z,71.83
2023-03-16T05:16:52.182Z,71.46
2023-03-16T05:17:43.987Z,71.69
2023-03-16T05:18:37.533Z,71.50
2023-03-16T05:19:30.073Z,71.12
2023-03-16T05:20:22.316Z,71.70
2023-03-16T05:21:17.307Z,71.40
2023-03-16T05:22:17.901Z,71.52
2023-03-16T05:23:31.644Z,71.60
2023-03-16T05:24:26.794Z,71.63
2023-03-16T05:25:19.988Z,71.52
2023-03-16T05:26:14.625Z,71.18
2023-03-16T05:27:06.203Z,71.45
2023-03-16T05:27:57.983Z,71.81
2023-03-16T05:28:55.646Z,71.58
2023-03-16T05:29:50.278Z,71.47
2023-03-16T05:30:42.817Z,71.58
2023-03-16T05:31:38.489Z,71.62
2023-03-16T05:32:35.888Z,71.93
2023-03-16T05:33:27.848Z,71.51
2023-03-16T05:34:27.218Z,71.51
2023-03-16T05:35:18.936Z,71.34
2023-03-16T05:36:12.985Z,71.28
2023-03-16T05:37:06.236Z,71.40
2023-03-16T05:37:58.341Z,70.99
2023-03-16T05:38:50.573Z,71.10
2023-03-16T05:39:58.465Z,71.21
2023-03-16T05:40:54.450Z,71.51
2023-03-16T05:42:03.657Z,71.51
2023-03-16T05:43:04.330Z,71.51
2023-03-16T05:43:59.050Z,71.46
2023-03-16T05:44:56.177Z,71.50
2023-03-16T05:46:01.545Z,71.56
2023-03-16T05:46:54.110Z,71.48
2023-03-16T05:47:45.945Z,71.35
2023-03-16T05:48:37.681Z,71.32
2023-03-16T05:49:31.242Z,71.46
2023-03-16T05:50:24.308Z,70.52
2023-03-16T05:51:15.793Z,70.76
2023-03-16T05:52:07.505Z,71.04
2023-03-16T05:53:00.330Z,70.68
2023-03-16T05:53:56.592Z,70.29
2023-03-16T05:54:56.213Z,70.67
2023-03-16T05:55:53.505Z,70.86
2023-03-16T05:56:45.048Z,71.07
2023-03-16T05:57:36.912Z,71.43
2023-03-16T05:58:33.593Z,70.97
2023-03-16T05:59:25.198Z,71.15
2023-03-16T06:00:21.294Z,71.49
2023-03-16T06:01:21.969Z,71.34
2023-03-16T06:02:14.646Z,71.13
2023-03-16T06:03:07.227Z,70.93
2023-03-16T06:04:03.025Z,71.00
2023-03-16T06:04:59.289Z,70.97
2023-03-16T06:05:50.828Z,71.08
2023-03-16T06:06:48.866Z,70.84
2023-03-16T06:07:50.201Z,70.74
2023-03-16T06:08:43.650Z,70.89
2023-03-16T06:09:36.801Z,71.30
2023-03-16T06:10:35.805Z,71.55
2023-03-16T06:11:27.387Z,71.17
2023-03-16T06:12:19.408Z,71.05
2023-03-16T06:13:11.414Z,71.17
2023-03-16T06:14:03.490Z,71.24
2023-03-16T06:14:55.172Z,71.04
2023-03-16T06:15:46.708Z,70.73
2023-03-16T06:16:38.853Z,70.75
2023-03-16T06:17:30.750Z,71.01
2023-03-16T06:18:22.277Z,71.08
2023-03-16T06:19:13.940Z,71.41
2023-03-16T06:20:11.140Z,71.29
2023-03-16T06:21:04.575Z,71.21
2023-03-16T06:21:58.321Z,70.95
2023-03-16T06:22:50.390Z,70.77
2023-03-16T06:23:42.050Z,70.62
2023-03-16T06:24:35.122Z,70.71
2023-03-16T06:25:26.905Z,70.95
2023-03-16T06:26:19.870Z,70.93
2023-03-16T06:27:13.094Z,70.70
2023-03-16T06:28:19.388Z,70.73
2023-03-16T06:29:11.732Z,70.38
2023-03-16T06:30:09.781Z,69.80
2023-03-16T06:31:03.967Z,69.41
2023-03-16T06:31:58.910Z,69.37
2023-03-16T06:32:50.728Z,69.88
2023-03-16T06:33:43.343Z,69.64
2023-03-16T06:34:36.715Z,69.38
2023-03-16T06:35:29.867Z,69.45
2023-03-16T06:36:33.986Z,69.83
2023-03-16T06:37:28.442Z,70.00
2023-03-16T06:38:20.162Z,69.55
2023-03-16T06:39:23.364Z,68.42
2023-03-16T06:40:16.222Z,68.66
2023-03-16T06:41:07.735Z,69.20
2023-03-16T06:42:00.504Z,68.98
2023-03-16T06:42:52.106Z,69.07
2023-03-16T06:43:43.901Z,69.33
2023-03-16T06:44:35.939Z,69.09
2023-03-16T06:45:32.433Z,69.45
2023-03-16T06:46:24.075Z,69.50
2023-03-16T06:47:15.761Z,68.95
2023-03-16T06:48:07.526Z,69.01
2023-03-16T06:49:00.858Z,68.98
2023-03-16T06:49:55.102Z,68.45
2023-03-16T06:50:49.134Z,68.57
2023-03-16T06:51:46.120Z,68.11
2023-03-16T06:52:38.324Z,68.57
2023-03-16T06:53:29.979Z,68.13
2023-03-16T06:54:22.512Z,67.45
2023-03-16T06:55:14.481Z,67.51
2023-03-16T06:56:09.853Z,67.51
2023-03-16T06:57:05.696Z,68.17
2023-03-16T06:57:57.230Z,68.11
2023-03-16T06:58:49.714Z,67.79
2023-03-16T06:59:41.296Z,67.87
2023-03-16T07:00:34.063Z,68.05
2023-03-16T07:01:25.771Z,67.85
2023-03-16T07:02:17.592Z,67.64
2023-03-16T07:03:24.471Z,67.40
2023-03-16T07:04:21.690Z,67.82
2023-03-16T07:05:13.827Z,67.78
2023-03-16T07:06:06.115Z,68.44
2023-03-16T07:06:57.691Z,68.30
2023-03-16T07:07:49.260Z,68.35
2023-03-16T07:08:40.773Z,67.91
2023-03-16T07:09:32.597Z,67.38
2023-03-16T07:10:25.210Z,67.62
2023-03-16T07:11:16.966Z,67.17
2023-03-16T07:12:09.422Z,67.61
2023-03-16T07:13:02.271Z,67.39
2023-03-16T07:13:53.852Z,67.24
2023-03-16T07:14:50.738Z,67.31
2023-03-16T07:15:46.759Z,67.77
2023-03-16T07:16:38.405Z,67.70
2023-03-16T07:17:32.307Z,67.07
2023-03-16T07:18:26.039Z,66.84
2023-03-16T07:19:17.746Z,67.42
2023-03-16T07:20:11.410Z,67.58
2023-03-16T07:21:04.149Z,67.61
2023-03-16T07:21:56.417Z,67.34
2023-03-16T07:22:50.032Z,66.76
2023-03-16T07:23:42.674Z,67.18
2023-03-16T07:24:36.965Z,67.21
2023-03-16T07:25:28.853Z,66.14
2023-03-16T07:26:20.852Z,66.60
2023-03-16T07:27:17.832Z,67.02
2023-03-16T07:28:11.616Z,66.56
2023-03-16T07:29:06.540Z,66.16
2023-03-16T07:30:00.285Z,66.27
2023-03-16T07:31:02.880Z,67.03
2023-03-16T07:31:58.742Z,66.26
2023-03-16T07:32:57.862Z,66.08
2023-03-16T07:33:51.037Z,66.02
2023-03-16T07:34:51.189Z,66.52
2023-03-16T07:35:43.251Z,66.37
2023-03-16T07:36:35.277Z,66.58
2023-03-16T07:37:27.813Z,66.07
2023-03-16T07:38:22.466Z,65.65
2023-03-16T07:39:17.640Z,65.96
2023-03-16T07:40:10.303Z,66.33
2023-03-16T07:41:02.014Z,65.83
2023-03-16T07:41:53.522Z,66.02
2023-03-16T07:43:01.596Z,65.78
2023-03-16T07:43:59.589Z,65.82
2023-03-16T07:44:52.071Z,66.37
2023-03-16T07:45:51.748Z,66.17
2023-03-16T07:46:44.425Z,65.49
2023-03-16T07:47:36.385Z,65.78
2023-03-16T07:48:34.749Z,65.55
2023-03-16T07:49:28.180Z,65.53
2023-03-16T07:50:22.202Z,65.49
2023-03-16T07:51:14.447Z,65.75
2023-03-16T07:52:13.567Z,65.41
2023-03-16T07:53:05.902Z,64.70
2023-03-16T07:54:00.817Z,64.45
2023-03-16T07:54:56.135Z,64.98
2023-03-16T07:55:48.254Z,65.05
2023-03-16T07:56:49.279Z,64.89
2023-03-16T07:57:51.883Z,65.21
2023-03-16T07:58:51.401Z,64.29
2023-03-16T07:59:43.377Z,64.47
2023-03-16T08:00:39.021Z,64.40
2023-03-16T08:01:30.791Z,64.79
2023-03-16T08:02:22.780Z,63.80
2023-03-16T08:03:14.887Z,64.01
2023-03-16T08:04:07.022Z,64.17
2023-03-16T08:04:58.717Z,64.45
2023-03-16T08:05:51.306Z,64.54
2023-03-16T08:06:43.549Z,63.95
2023-03-16T08:07:35.076Z,63.54
2023-03-16T08:08:33.979Z,64.36
2023-03-16T08:09:27.187Z,63.98
2023-03-16T08:10:19.662Z,64.32
2023-03-16T08:11:23.657Z,63.79
2023-03-16T08:12:20.962Z,63.91
2023-03-16T08:13:12.479Z,63.31
2023-03-16T08:14:07.164Z,63.01
2023-03-16T08:15:17.703Z,62.82
2023-03-16T08:16:10.357Z,62.90
2023-03-16T08:17:06.056Z,63.05
2023-03-16T08:17:59.106Z,63.53
2023-03-16T08:18:51.889Z,63.40
2023-03-16T08:19:44.484Z,63.36
2023-03-16T08:20:36.036Z,62.92
2023-03-16T08:21:28.337Z,62.96
2023-03-16T08:22:20.907Z,63.13
2023-03-16T08:23:15.521Z,63.43
2023-03-16T08:24:07.574Z,62.91
2023-03-16T08:24:59.205Z,62.81
2023-03-16T08:25:56.074Z,61.95
2023-03-16T08:26:48.407Z,62.59
2023-03-16T08:27:40.272Z,62.13
2023-03-16T08:28:32.067Z,62.28
2023-03-16T08:29:26.933Z,61.83
2023-03-16T08:30:19.020Z,61.94
2023-03-16T08:31:20.850Z,61.57
2023-03-16T08:32:22.059Z,61.57
2023-03-16T08:33:13.805Z,61.87
2023-03-16T08:34:06.380Z,62.20
2023-03-16T08:35:02.600Z,62.14
2023-03-16T08:35:54.516Z,61.81
2023-03-16T08:36:46.079Z,61.79
2023-03-16T08:37:39.035Z,62.05
2023-03-16T08:38:32.141Z,61.79
2023-03-16T08:39:27.338Z,62.39
2023-03-16T08:40:19.360Z,62.08
2023-03-16T08:41:12.826Z,61.36
2023-03-16T08:42:06.487Z,61.59
2023-03-16T08:43:04.556Z,61.98
2023-03-16T08:43:57.753Z,61.89
2023-03-16T08:44:49.437Z,61.57
2023-03-16T08:45:42.900Z,61.13
2023-03-16T08:46:35.590Z,60.80
2023-03-16T08:47:27.242Z,61.02
2023-03-16T08:48:20.309Z,60.49
2023-03-16T08:49:14.529Z,60.25
2023-03-16T08:50:10.005Z,61.07
2023-03-16T08:51:03.455Z,60.44
2023-03-16T08:51:55.058Z,61.62
2023-03-16T08:52:48.989Z,61.44
2023-03-16T08:53:40.657Z,61.37
2023-03-16T08:54:34.972Z,60.90
2023-03-16T08:55:26.684Z,61.01
2023-03-16T08:56:18.467Z,60.93
2023-03-16T08:57:10.620Z,60.81
2023-03-16T08:58:02.559Z,60.86
2023-03-16T08:58:54.074Z,60.57
2023-03-16T08:59:45.873Z,60.76
2023-03-16T09:00:38.903Z,60.78
2023-03-16T09:01:30.505Z,60.36
2023-03-16T09:02:22.194Z,60.56
2023-03-16T09:03:13.713Z,61.02
2023-03-16T09:04:05.333Z,60.70
2023-03-16T09:04:57.021Z,61.02
2023-03-16T09:05:49.420Z,60.44
2023-03-16T09:06:41.520Z,60.34
2023-03-16T09:07:35.595Z,60.40
2023-03-16T09:08:27.308Z,60.49
2023-03-16T09:09:19.364Z,60.43
2023-03-16T09:10:15.919Z,60.80
2023-03-16T09:11:10.263Z,60.85
2023-03-16T09:12:02.217Z,60.72
2023-03-16T09:12:54.000Z,60.62
2023-03-16T09:13:47.248Z,61.06
2023-03-16T09:14:39.633Z,60.26
2023-03-16T09:15:31.439Z,60.44
2023-03-16T09:16:25.516Z,60.28
2023-03-16T09:17:17.199Z,59.63
2023-03-16T09:18:08.857Z,60.41
2023-03-16T09:19:00.749Z,60.04
2023-03-16T09:19:54.985Z,60.74
2023-03-16T09:20:48.779Z,61.23
2023-03-16T09:21:40.375Z,59.71
2023-03-16T09:22:31.893Z,60.27
2023-03-16T09:23:23.392Z,59.12
2023-03-16T09:24:14.951Z,59.41
2023-03-16T09:25:08.820Z,58.94
2023-03-16T09:26:03.066Z,59.67
2023-03-16T09:26:54.838Z,59.30
2023-03-16T09:27:46.772Z,59.67
2023-03-16T09:28:41.981Z,59.27
2023-03-16T09:29:34.245Z,58.58
2023-03-16T09:30:26.698Z,59.30
2023-03-16T09:31:19.898Z,59.24
2023-03-16T09:32:11.747Z,58.94
2023-03-16T09:33:04.225Z,58.27
2023-03-16T09:33:55.781Z,58.17
2023-03-16T09:34:47.413Z,58.11
2023-03-16T09:35:39.513Z,57.65
2023-03-16T09:36:31.081Z,57.95
2023-03-16T09:37:23.299Z,58.10
2023-03-16T09:38:15.304Z,56.92
2023-03-16T09:39:06.796Z,55.86
2023-03-16T09:40:06.591Z,57.45
2023-03-16T09:41:09.868Z,57.26
2023-03-16T09:42:33.948Z,56.09
2023-03-16T09:43:43.203Z,56.82
2023-03-16T09:45:06.876Z,55.73
2023-03-16T09:46:17.358Z,56.89
2023-03-16T09:47:12.065Z,56.56
2023-03-16T09:48:05.528Z,55.95
2023-03-16T09:48:58.268Z,55.38
2023-03-16T09:49:52.211Z,55.29
2023-03-16T09:50:49.147Z,55.91
2023-03-16T09:51:44.105Z,55.66
2023-03-16T09:52:49.065Z,56.03
2023-03-16T09:53:41.881Z,55.96
2023-03-16T09:54:46.095Z,54.70
2023-03-16T09:55:39.286Z,55.25
2023-03-16T09:56:37.556Z,55.82
2023-03-16T09:57:35.487Z,55.71
2023-03-16T09:58:27.209Z,55.16
2023-03-16T09:59:19.095Z,55.36
2023-03-16T10:00:32.685Z,55.13
2023-03-16T10:01:39.674Z,55.12
2023-03-16T10:02:50.964Z,55.50
2023-03-16T10:04:02.076Z,55.59
2023-03-16T10:05:10.493Z,54.50
2023-03-16T10:06:06.622Z,54.43
2023-03-16T10:07:21.154Z,54.05
2023-03-16T10:08:20.465Z,54.57
2023-03-16T10:09:33.797Z,55.57
2023-03-16T10:11:03.813Z,55.83
2023-03-16T10:12:02.288Z,55.86
2023-03-16T10:13:00.681Z,54.97
2023-03-16T10:14:23.566Z,55.50
2023-03-16T10:15:19.309Z,56.05
2023-03-16T10:16:20.787Z,55.28
2023-03-16T10:17:26.590Z,55.15
2023-03-16T10:18:26.437Z,55.55
2023-03-16T10:19:25.570Z,55.20
2023-03-16T10:20:23.400Z,55.68
2023-03-16T10:21:18.249Z,55.51
2023-03-16T10:22:31.564Z,55.30
2023-03-16T10:23:25.725Z,55.72
2023-03-16T10:24:45.392Z,54.77
2023-03-16T10:25:54.585Z,55.68
2023-03-16T10:26:56.363Z,55.08
2023-03-16T10:27:48.742Z,55.05
2023-03-16T10:28:42.317Z,55.80
2023-03-16T10:29:36.983Z,55.74
2023-03-16T10:30:35.205Z,55.04
2023-03-16T10:31:28.210Z,55.43
2023-03-16T10:32:20.037Z,54.79
2023-03-16T10:33:33.469Z,54.96
2023-03-16T10:34:25.313Z,55.60
2023-03-16T10:35:34.719Z,55.29
2023-03-16T10:36:36.876Z,54.42
2023-03-16T10:37:31.068Z,54.70
2023-03-16T10:38:39.937Z,53.94
2023-03-16T10:39:42.841Z,54.38
2023-03-16T10:40:39.495Z,54.44
2023-03-16T10:41:37.300Z,53.62
2023-03-16T10:42:28.946Z,53.87
2023-03-16T10:43:20.874Z,54.00
2023-03-16T10:44:16.812Z,54.01
2023-03-16T10:45:33.421Z,55.52
2023-03-16T10:46:27.678Z,54.69
2023-03-16T10:47:28.046Z,54.32
2023-03-16T10:48:21.196Z,53.22
2023-03-16T10:49:27.472Z,53.08
2023-03-16T10:50:25.886Z,52.38
2023-03-16T10:51:25.245Z,53.27
2023-03-16T10:52:39.952Z,53.07
2023-03-16T10:53:36.680Z,53.56
2023-03-16T10:54:33.480Z,53.09
2023-03-16T10:55:31.091Z,52.77
2023-03-16T10:56:29.100Z,53.38
2023-03-16T10:57:33.498Z,52.68
2023-03-16T10:58:30.941Z,52.63
2023-03-16T10:59:29.510Z,53.08
2023-03-16T11:00:34.556Z,53.27
2023-03-16T11:01:28.916Z,53.26
2023-03-16T11:02:26.312Z,52.90
2023-03-16T11:03:27.461Z,52.53
2023-03-16T11:04:20.331Z,51.54
2023-03-16T11:05:13.233Z,52.28
2023-03-16T11:06:07.522Z,53.94
2023-03-16T11:06:59.556Z,51.91
2023-03-16T11:07:58.626Z,52.50
2023-03-16T11:08:53.017Z,52.74
2023-03-16T11:09:47.726Z,52.06
2023-03-16T11:10:55.165Z,52.76
2023-03-16T11:11:49.394Z,51.50
2023-03-16T11:12:41.429Z,50.74
2023-03-16T11:13:35.937Z,51.65
2023-03-16T11:14:28.974Z,51.79
2023-03-16T11:15:26.244Z,52.30
2023-03-16T11:16:43.255Z,52.04
2023-03-16T11:17:43.220Z,52.58
2023-03-16T11:18:45.044Z,51.03
2023-03-16T11:19:50.048Z,51.58
2023-03-16T11:20:41.867Z,52.83
2023-03-16T11:21:56.014Z,53.48
2023-03-16T11:22:48.401Z,53.03
2023-03-16T11:23:48.332Z,52.59
2023-03-16T11:24:52.562Z,52.23
2023-03-16T11:25:54.213Z,52.84
2023-03-16T11:26:56.193Z,52.22
2023-03-16T11:27:54.080Z,51.92
2023-03-16T11:28:54.484Z,52.92
2023-03-16T11:30:20.895Z,52.02
2023-03-16T11:31:42.763Z,53.49
2023-03-16T11:32:42.075Z,53.61
2023-03-16T11:33:35.318Z,52.87
2023-03-16T11:34:32.001Z,51.85
2023-03-16T11:35:39.902Z,51.47
2023-03-16T11:36:55.889Z,51.39
2023-03-16T11:38:10.960Z,51.84
2023-03-16T11:39:04.584Z,52.28
2023-03-16T11:40:23.512Z,51.92
2023-03-16T11:41:32.210Z,52.78
2023-03-16T11:42:38.444Z,52.32
2023-03-16T11:43:39.069Z,52.34
2023-03-16T11:44:44.506Z,51.97
2023-03-16T11:45:57.548Z,52.62
2023-03-16T11:47:30.807Z,53.14
2023-03-16T11:48:48.678Z,52.82
2023-03-16T11:50:05.607Z,53.23
2023-03-16T11:51:29.560Z,52.28
2023-03-16T11:52:43.660Z,52.15
2023-03-16T11:54:00.018Z,52.45
2023-03-16T11:55:09.054Z,52.89
2023-03-16T11:56:18.651Z,51.65
2023-03-16T11:57:28.584Z,51.00
2023-03-16T11:58:49.401Z,50.97
2023-03-16T12:00:26.461Z,51.35